sensor_id;sensor_type;location;lat;lon;timestamp;P1;durP1;ratioP1;P2;durP2;ratioP2
55575;SDS011;41437;45.478;9.116;2022-08-01T18:32:42;4.03;;;1.33;;
55575;SDS011;41437;45.478;9.116;2022-08-01T18:35:43;3.95;;;1.48;;
55575;SDS011;41437;45.478;9.116;2022-08-01T18:38:47;3.08;;;1.50;;
55575;SDS011;41437;45.478;9.116;2022-08-01T18:41:49;4.22;;;1.60;;
55575;SDS011;41437;45.478;9.116;2022-08-01T18:44:51;3.97;;;1.90;;
55575;SDS011;41437;45.478;9.116;2022-08-01T18:47:54;5.57;;;2.03;;
55575;SDS011;41437;45.478;9.116;2022-08-01T18:50:56;4.85;;;1.70;;
55575;SDS011;41437;45.478;9.116;2022-08-01T18:53:59;5.00;;;1.60;;
55575;SDS011;41437;45.478;9.116;2022-08-01T18:57:01;4.28;;;2.08;;
55575;SDS011;41437;45.478;9.116;2022-08-01T19:00:03;4.57;;;2.03;;
55575;SDS011;41437;45.478;9.116;2022-08-01T19:03:07;4.60;;;2.17;;
55575;SDS011;41437;45.478;9.116;2022-08-01T19:06:09;5.05;;;2.40;;
55575;SDS011;41437;45.478;9.116;2022-08-01T19:09:10;5.45;;;2.10;;
55575;SDS011;41437;45.478;9.116;2022-08-01T19:12:12;3.72;;;2.00;;
55575;SDS011;41437;45.478;9.116;2022-08-01T19:15:14;3.92;;;2.20;;
55575;SDS011;41437;45.478;9.116;2022-08-01T19:18:17;5.85;;;2.30;;
55575;SDS011;41437;45.478;9.116;2022-08-01T19:21:18;5.95;;;2.13;;
55575;SDS011;41437;45.478;9.116;2022-08-01T19:24:20;3.63;;;2.00;;
55575;SDS011;41437;45.478;9.116;2022-08-01T19:27:22;3.70;;;1.90;;
55575;SDS011;41437;45.478;9.116;2022-08-01T19:30:25;3.17;;;1.73;;
55575;SDS011;41437;45.478;9.116;2022-08-01T19:33:29;5.60;;;1.88;;
55575;SDS011;41437;45.478;9.116;2022-08-01T19:36:33;4.18;;;1.80;;
55575;SDS011;41437;45.478;9.116;2022-08-01T19:39:35;4.38;;;1.80;;
55575;SDS011;41437;45.478;9.116;2022-08-01T19:42:38;5.28;;;2.20;;
55575;SDS011;41437;45.478;9.116;2022-08-01T19:45:41;4.15;;;1.90;;
55575;SDS011;41437;45.478;9.116;2022-08-01T19:48:44;5.57;;;2.00;;
55575;SDS011;41437;45.478;9.116;2022-08-01T19:51:49;3.20;;;1.70;;
55575;SDS011;41437;45.478;9.116;2022-08-01T19:54:54;4.28;;;2.10;;
55575;SDS011;41437;45.478;9.116;2022-08-01T19:57:56;3.80;;;1.80;;
55575;SDS011;41437;45.478;9.116;2022-08-01T20:00:58;4.47;;;1.80;;
55575;SDS011;41437;45.478;9.116;2022-08-01T20:04:02;5.57;;;1.80;;
55575;SDS011;41437;45.478;9.116;2022-08-01T20:07:04;4.18;;;1.70;;
55575;SDS011;41437;45.478;9.116;2022-08-01T20:10:06;4.60;;;1.83;;
55575;SDS011;41437;45.478;9.116;2022-08-01T20:13:09;3.65;;;1.88;;
55575;SDS011;41437;45.478;9.116;2022-08-01T20:19:15;3.67;;;2.13;;
55575;SDS011;41437;45.478;9.116;2022-08-01T20:22:18;3.97;;;1.70;;
55575;SDS011;41437;45.478;9.116;2022-08-01T20:25:26;3.30;;;1.52;;
55575;SDS011;41437;45.478;9.116;2022-08-01T20:28:28;4.25;;;2.20;;
55575;SDS011;41437;45.478;9.116;2022-08-01T20:31:30;3.83;;;1.80;;
55575;SDS011;41437;45.478;9.116;2022-08-01T20:34:34;3.10;;;1.60;;
55575;SDS011;41437;45.478;9.116;2022-08-01T20:37:37;4.65;;;1.92;;
55575;SDS011;41437;45.478;9.116;2022-08-01T20:40:40;4.10;;;1.75;;
55575;SDS011;41437;45.478;9.116;2022-08-01T20:43:44;3.28;;;1.77;;
55575;SDS011;41437;45.478;9.116;2022-08-01T20:46:47;3.50;;;1.75;;
55575;SDS011;41437;45.478;9.116;2022-08-01T20:49:51;3.72;;;1.90;;
55575;SDS011;41437;45.478;9.116;2022-08-01T20:53:13;3.42;;;1.80;;
55575;SDS011;41437;45.478;9.116;2022-08-01T20:56:15;3.88;;;1.73;;
55575;SDS011;41437;45.478;9.116;2022-08-01T20:59:23;3.03;;;1.50;;
55575;SDS011;41437;45.478;9.116;2022-08-01T21:02:35;3.05;;;1.52;;
55575;SDS011;41437;45.478;9.116;2022-08-01T21:05:49;3.60;;;1.65;;
55575;SDS011;41437;45.478;9.116;2022-08-01T21:08:55;4.07;;;1.60;;
55575;SDS011;41437;45.478;9.116;2022-08-01T21:12:03;3.10;;;1.63;;
55575;SDS011;41437;45.478;9.116;2022-08-01T21:15:06;3.88;;;1.60;;
55575;SDS011;41437;45.478;9.116;2022-08-01T21:18:14;2.92;;;1.55;;
55575;SDS011;41437;45.478;9.116;2022-08-01T21:21:21;3.03;;;1.50;;
55575;SDS011;41437;45.478;9.116;2022-08-01T21:24:28;2.92;;;1.48;;
55575;SDS011;41437;45.478;9.116;2022-08-01T21:27:38;2.35;;;1.40;;
55575;SDS011;41437;45.478;9.116;2022-08-01T21:33:42;2.80;;;1.40;;
55575;SDS011;41437;45.478;9.116;2022-08-01T21:36:46;2.85;;;1.52;;
55575;SDS011;41437;45.478;9.116;2022-08-01T21:39:49;2.67;;;1.33;;
55575;SDS011;41437;45.478;9.116;2022-08-01T21:42:51;3.03;;;1.20;;
55575;SDS011;41437;45.478;9.116;2022-08-01T21:45:54;2.70;;;1.40;;
55575;SDS011;41437;45.478;9.116;2022-08-01T21:48:56;3.05;;;1.30;;
55575;SDS011;41437;45.478;9.116;2022-08-01T21:52:02;2.75;;;1.35;;
55575;SDS011;41437;45.478;9.116;2022-08-01T21:55:08;2.47;;;1.30;;
55575;SDS011;41437;45.478;9.116;2022-08-01T21:58:19;3.05;;;1.27;;
55575;SDS011;41437;45.478;9.116;2022-08-01T22:01:35;2.55;;;1.33;;
55575;SDS011;41437;45.478;9.116;2022-08-01T22:04:41;2.17;;;1.30;;
55575;SDS011;41437;45.478;9.116;2022-08-01T22:07:51;2.40;;;1.30;;
55575;SDS011;41437;45.478;9.116;2022-08-01T22:10:56;2.20;;;1.30;;
55575;SDS011;41437;45.478;9.116;2022-08-01T22:14:01;2.20;;;1.20;;
55575;SDS011;41437;45.478;9.116;2022-08-01T22:17:05;2.08;;;1.30;;
55575;SDS011;41437;45.478;9.116;2022-08-01T22:20:08;2.67;;;1.30;;
55575;SDS011;41437;45.478;9.116;2022-08-01T22:23:11;2.35;;;1.23;;
55575;SDS011;41437;45.478;9.116;2022-08-01T22:26:14;2.17;;;1.27;;
55575;SDS011;41437;45.478;9.116;2022-08-01T22:29:16;2.37;;;1.40;;
55575;SDS011;41437;45.478;9.116;2022-08-01T22:32:18;2.83;;;1.10;;
55575;SDS011;41437;45.478;9.116;2022-08-01T22:35:20;2.60;;;1.40;;
55575;SDS011;41437;45.478;9.116;2022-08-01T22:38:23;2.17;;;1.20;;
55575;SDS011;41437;45.478;9.116;2022-08-01T22:41:26;2.38;;;1.20;;
55575;SDS011;41437;45.478;9.116;2022-08-01T22:44:36;1.60;;;1.08;;
55575;SDS011;41437;45.478;9.116;2022-08-01T22:47:49;2.75;;;1.10;;
55575;SDS011;41437;45.478;9.116;2022-08-01T22:51:00;1.95;;;1.00;;
55575;SDS011;41437;45.478;9.116;2022-08-01T22:54:10;2.55;;;1.20;;
55575;SDS011;41437;45.478;9.116;2022-08-01T22:57:14;2.22;;;1.25;;
55575;SDS011;41437;45.478;9.116;2022-08-01T23:00:20;2.72;;;1.10;;
55575;SDS011;41437;45.478;9.116;2022-08-01T23:03:23;2.20;;;1.30;;
55575;SDS011;41437;45.478;9.116;2022-08-01T23:06:41;2.00;;;1.10;;
55575;SDS011;41437;45.478;9.116;2022-08-01T23:09:44;1.80;;;1.10;;
55575;SDS011;41437;45.478;9.116;2022-08-01T23:12:47;2.40;;;1.20;;
55575;SDS011;41437;45.478;9.116;2022-08-01T23:15:50;1.80;;;1.05;;
55575;SDS011;41437;45.478;9.116;2022-08-01T23:18:52;2.57;;;1.17;;
55575;SDS011;41437;45.478;9.116;2022-08-01T23:21:54;1.77;;;1.00;;
55575;SDS011;41437;45.478;9.116;2022-08-01T23:24:59;1.98;;;1.05;;
55575;SDS011;41437;45.478;9.116;2022-08-01T23:28:04;2.40;;;1.10;;
55575;SDS011;41437;45.478;9.116;2022-08-01T23:31:06;1.77;;;1.00;;
55575;SDS011;41437;45.478;9.116;2022-08-01T23:34:08;2.00;;;1.10;;
55575;SDS011;41437;45.478;9.116;2022-08-01T23:37:10;1.73;;;1.00;;
55575;SDS011;41437;45.478;9.116;2022-08-01T23:40:14;2.55;;;1.20;;
55575;SDS011;41437;45.478;9.116;2022-08-01T23:43:15;1.55;;;1.02;;
55575;SDS011;41437;45.478;9.116;2022-08-01T23:46:17;2.08;;;1.10;;
55575;SDS011;41437;45.478;9.116;2022-08-01T23:49:19;1.80;;;1.00;;
55575;SDS011;41437;45.478;9.116;2022-08-01T23:52:21;2.08;;;1.08;;
55575;SDS011;41437;45.478;9.116;2022-08-01T23:55:24;1.70;;;1.00;;
55575;SDS011;41437;45.478;9.116;2022-08-01T23:58:25;3.38;;;1.30;;
